createdAt,value
2018-12-07T00:00:03.615Z,20.51
2018-12-07T00:01:06.452Z,20.49
2018-12-07T00:02:09.014Z,20.48
2018-12-07T00:03:11.595Z,20.46
2018-12-07T00:04:14.115Z,20.46
2018-12-07T00:05:16.630Z,20.44
2018-12-07T00:06:19.172Z,20.41
2018-12-07T00:07:21.667Z,20.39
2018-12-07T00:08:24.258Z,20.37
2018-12-07T00:09:26.855Z,20.35
2018-12-07T00:10:29.426Z,20.34
2018-12-07T00:11:31.934Z,20.32
2018-12-07T00:12:34.480Z,20.30
2018-12-07T00:13:36.961Z,20.28
2018-12-07T00:14:39.451Z,20.25
2018-12-07T00:15:41.960Z,20.24
2018-12-07T00:16:44.461Z,20.21
2018-12-07T00:17:46.951Z,20.20
2018-12-07T00:18:49.427Z,20.17
2018-12-07T00:19:51.889Z,20.17
2018-12-07T00:20:54.373Z,20.17
2018-12-07T00:21:56.853Z,20.18
2018-12-07T00:22:59.328Z,20.20
2018-12-07T00:24:01.829Z,20.24
2018-12-07T00:25:04.710Z,20.31
2018-12-07T00:26:07.198Z,20.35
2018-12-07T00:27:09.690Z,20.37
2018-12-07T00:28:12.229Z,20.41
2018-12-07T00:29:14.719Z,20.49
2018-12-07T00:30:17.382Z,20.50
2018-12-07T00:31:19.878Z,20.55
2018-12-07T00:32:22.360Z,20.56
2018-12-07T00:33:24.826Z,20.60
2018-12-07T00:34:27.317Z,20.61
2018-12-07T00:35:29.816Z,20.61
2018-12-07T00:36:32.295Z,20.61
2018-12-07T00:37:34.796Z,20.63
2018-12-07T00:38:37.293Z,20.62
2018-12-07T00:39:39.784Z,20.60
2018-12-07T00:40:42.374Z,20.60
2018-12-07T00:41:44.869Z,20.59
2018-12-07T00:42:47.383Z,20.57
2018-12-07T00:43:49.882Z,20.56
2018-12-07T00:44:52.409Z,20.54
2018-12-07T00:45:54.877Z,20.53
2018-12-07T00:46:57.363Z,20.50
2018-12-07T00:47:59.842Z,20.48
2018-12-07T00:49:02.356Z,20.46
2018-12-07T00:50:05.103Z,20.44
2018-12-07T00:52:09.367Z,20.40
2018-12-07T00:53:11.856Z,20.39
2018-12-07T00:54:14.371Z,20.37
2018-12-07T00:55:28.627Z,20.35
2018-12-07T00:56:31.107Z,20.34
2018-12-07T00:57:33.598Z,20.35
2018-12-07T00:58:36.093Z,20.32
2018-12-07T00:59:38.591Z,20.31
2018-12-07T01:00:41.105Z,20.29
2018-12-07T01:01:43.779Z,20.27
2018-12-07T01:02:46.278Z,20.25
2018-12-07T01:03:48.758Z,20.24
2018-12-07T01:04:51.340Z,20.22
2018-12-07T01:05:53.868Z,20.21
2018-12-07T01:06:56.354Z,20.19
2018-12-07T01:07:58.853Z,20.20
2018-12-07T01:09:01.405Z,20.25
2018-12-07T01:10:05.277Z,20.29
2018-12-07T01:11:07.814Z,20.35
2018-12-07T01:12:10.287Z,20.41
2018-12-07T01:13:12.870Z,20.48
2018-12-07T01:14:15.342Z,20.50
2018-12-07T01:15:17.811Z,20.56
2018-12-07T01:16:20.301Z,20.58
2018-12-07T01:17:22.825Z,20.60
2018-12-07T01:18:25.304Z,20.62
2018-12-07T01:19:27.803Z,20.64
2018-12-07T01:20:30.283Z,20.65
2018-12-07T01:21:32.770Z,20.66
2018-12-07T01:22:35.270Z,20.67
2018-12-07T01:23:37.780Z,20.64
2018-12-07T01:24:40.277Z,20.65
2018-12-07T01:25:42.766Z,20.64
2018-12-07T01:26:45.280Z,20.65
2018-12-07T01:27:47.878Z,20.64
2018-12-07T01:28:50.404Z,20.61
2018-12-07T01:29:52.889Z,20.60
2018-12-07T01:30:55.354Z,20.59
2018-12-07T01:31:57.851Z,20.59
2018-12-07T01:33:00.421Z,20.58
2018-12-07T01:34:02.975Z,20.54
2018-12-07T01:35:05.500Z,20.53
2018-12-07T01:36:07.975Z,20.52
2018-12-07T01:37:10.590Z,20.50
2018-12-07T01:38:13.074Z,20.47
2018-12-07T01:39:15.582Z,20.45
2018-12-07T01:40:19.182Z,20.45
2018-12-07T01:41:21.649Z,20.43
2018-12-07T01:42:24.182Z,20.41
2018-12-07T01:43:26.690Z,20.40
2018-12-07T01:44:29.153Z,20.38
2018-12-07T01:45:31.703Z,20.36
2018-12-07T01:46:34.256Z,20.33
2018-12-07T01:47:38.745Z,20.32
2018-12-07T01:48:41.227Z,20.30
2018-12-07T01:49:43.745Z,20.28
2018-12-07T01:50:46.249Z,20.25
2018-12-07T01:51:48.728Z,20.23
2018-12-07T01:52:51.218Z,20.20
2018-12-07T01:53:53.737Z,20.21
2018-12-07T01:54:56.230Z,20.22
2018-12-07T01:55:58.794Z,20.23
2018-12-07T01:57:01.297Z,20.30
2018-12-07T01:58:03.802Z,20.37
2018-12-07T01:59:06.296Z,20.45
2018-12-07T02:00:09.032Z,20.49
2018-12-07T02:01:11.525Z,20.50
2018-12-07T02:02:14.024Z,20.54
2018-12-07T02:03:16.501Z,20.58
2018-12-07T02:04:18.993Z,20.60
2018-12-07T02:05:21.477Z,20.64
2018-12-07T02:06:24.031Z,20.63
2018-12-07T02:07:31.257Z,20.63
2018-12-07T02:08:33.736Z,20.66
2018-12-07T02:09:36.235Z,20.65
2018-12-07T02:10:38.736Z,20.63
2018-12-07T02:11:41.354Z,20.63
2018-12-07T02:12:43.890Z,20.62
2018-12-07T02:13:46.431Z,20.61
2018-12-07T02:14:48.897Z,20.60
2018-12-07T02:15:51.395Z,20.59
2018-12-07T02:16:53.856Z,20.56
2018-12-07T02:17:56.327Z,20.54
2018-12-07T02:18:58.877Z,20.54
2018-12-07T02:20:01.411Z,20.52
2018-12-07T02:21:03.995Z,20.50
2018-12-07T02:22:06.551Z,20.49
2018-12-07T02:23:09.068Z,20.47
2018-12-07T02:24:11.558Z,20.45
2018-12-07T02:25:14.714Z,20.44
2018-12-07T02:26:17.232Z,20.39
2018-12-07T02:27:19.815Z,20.38
2018-12-07T02:28:22.295Z,20.36
2018-12-07T02:29:24.796Z,20.35
2018-12-07T02:30:27.352Z,20.33
2018-12-07T02:31:29.831Z,20.31
2018-12-07T02:32:32.311Z,20.30
2018-12-07T02:33:34.804Z,20.29
2018-12-07T02:34:37.328Z,20.27
2018-12-07T02:35:40.692Z,20.25
2018-12-07T02:36:43.241Z,20.25
2018-12-07T02:37:45.720Z,20.22
2018-12-07T02:38:48.198Z,20.21
2018-12-07T02:39:50.698Z,20.19
2018-12-07T02:40:53.203Z,20.18
2018-12-07T02:41:55.683Z,20.19
2018-12-07T02:42:58.169Z,20.24
2018-12-07T02:44:00.670Z,20.31
2018-12-07T02:45:03.535Z,20.38
2018-12-07T02:46:06.073Z,20.41
2018-12-07T02:47:08.587Z,20.51
2018-12-07T02:48:11.063Z,20.57
2018-12-07T02:49:13.658Z,20.60
2018-12-07T02:50:16.159Z,20.63
2018-12-07T02:51:18.648Z,20.66
2018-12-07T02:52:21.165Z,20.67
2018-12-07T02:53:23.675Z,20.69
2018-12-07T02:54:26.165Z,20.69
2018-12-07T02:55:28.700Z,20.73
2018-12-07T02:56:31.178Z,20.71
2018-12-07T02:57:33.767Z,20.75
2018-12-07T02:58:36.314Z,20.74
2018-12-07T02:59:38.777Z,20.72
2018-12-07T03:00:41.290Z,20.73
2018-12-07T03:01:43.899Z,20.73
2018-12-07T03:02:46.752Z,20.73
2018-12-07T03:03:49.262Z,20.72
2018-12-07T03:04:51.765Z,20.70
2018-12-07T03:05:54.256Z,20.68
2018-12-07T03:06:56.769Z,20.67
2018-12-07T03:07:59.275Z,20.67
2018-12-07T03:09:01.751Z,20.65
2018-12-07T03:10:05.489Z,20.62
2018-12-07T03:11:07.981Z,20.62
2018-12-07T03:12:10.477Z,20.59
2018-12-07T03:13:12.980Z,20.58
2018-12-07T03:14:15.442Z,20.55
2018-12-07T03:15:17.937Z,20.53
2018-12-07T03:16:20.481Z,20.52
2018-12-07T03:17:22.973Z,20.51
2018-12-07T03:18:32.569Z,20.48
2018-12-07T03:19:35.045Z,20.46
2018-12-07T03:20:37.555Z,20.44
2018-12-07T03:21:40.075Z,20.43
2018-12-07T03:22:42.613Z,20.41
2018-12-07T03:23:45.080Z,20.39
2018-12-07T03:24:47.604Z,20.37
2018-12-07T03:25:50.092Z,20.34
2018-12-07T03:26:52.584Z,20.33
2018-12-07T03:27:55.089Z,20.31
2018-12-07T03:28:57.585Z,20.29
2018-12-07T03:30:00.063Z,20.29
2018-12-07T03:31:02.567Z,20.30
2018-12-07T03:32:05.090Z,20.34
2018-12-07T03:33:07.596Z,20.38
2018-12-07T03:34:10.115Z,20.47
2018-12-07T03:35:12.600Z,20.49
2018-12-07T03:36:15.085Z,20.53
2018-12-07T03:37:17.591Z,20.58
2018-12-07T03:38:20.071Z,20.60
2018-12-07T03:39:22.578Z,20.65
2018-12-07T03:40:25.053Z,20.67
2018-12-07T03:41:27.562Z,20.67
2018-12-07T03:42:30.139Z,20.68
2018-12-07T03:43:32.606Z,20.68
2018-12-07T03:44:35.106Z,20.70
2018-12-07T03:45:37.578Z,20.72
2018-12-07T03:46:40.085Z,20.70
2018-12-07T03:47:42.590Z,20.69
2018-12-07T03:48:45.106Z,20.70
2018-12-07T03:49:47.606Z,20.70
2018-12-07T03:50:50.087Z,20.68
2018-12-07T03:51:52.556Z,20.66
2018-12-07T03:52:55.060Z,20.63
2018-12-07T03:53:57.607Z,20.63
2018-12-07T03:55:00.101Z,20.61
2018-12-07T03:56:02.712Z,20.62
2018-12-07T03:57:05.209Z,20.59
2018-12-07T03:58:07.718Z,20.58
2018-12-07T03:59:10.180Z,20.57
2018-12-07T04:00:12.894Z,20.54
2018-12-07T04:01:15.371Z,20.52
2018-12-07T04:02:17.873Z,20.50
2018-12-07T04:03:20.409Z,20.49
2018-12-07T04:04:23.371Z,20.47
2018-12-07T04:05:25.847Z,20.46
2018-12-07T04:06:28.361Z,20.43
2018-12-07T04:07:30.866Z,20.43
2018-12-07T04:08:33.479Z,20.40
2018-12-07T04:09:35.965Z,20.38
2018-12-07T04:10:38.448Z,20.37
2018-12-07T04:11:40.946Z,20.35
2018-12-07T04:12:43.428Z,20.34
2018-12-07T04:13:45.926Z,20.33
2018-12-07T04:14:48.423Z,20.31
2018-12-07T04:15:50.910Z,20.30
2018-12-07T04:16:53.396Z,20.28
2018-12-07T04:17:55.864Z,20.26
2018-12-07T04:18:58.420Z,20.23
2018-12-07T04:20:00.902Z,20.28
2018-12-07T04:21:03.393Z,20.31
2018-12-07T04:22:05.882Z,20.39
2018-12-07T04:23:08.517Z,20.45
2018-12-07T04:24:11.129Z,20.52
2018-12-07T04:25:13.625Z,20.52
2018-12-07T04:26:16.103Z,20.59
2018-12-07T04:27:18.603Z,20.63
2018-12-07T04:28:21.067Z,20.68
2018-12-07T04:29:23.577Z,20.68
2018-12-07T04:30:26.312Z,20.70
2018-12-07T04:31:28.781Z,20.73
2018-12-07T04:32:31.335Z,20.76
2018-12-07T04:33:33.814Z,20.77
2018-12-07T04:34:36.320Z,20.76
2018-12-07T04:35:38.809Z,20.77
2018-12-07T04:36:41.311Z,20.76
2018-12-07T04:37:43.819Z,20.73
2018-12-07T04:38:46.313Z,20.73
2018-12-07T04:39:48.837Z,20.72
2018-12-07T04:40:51.514Z,20.71
2018-12-07T04:41:54.027Z,20.69
2018-12-07T04:42:56.532Z,20.71
2018-12-07T04:43:59.040Z,20.67
2018-12-07T04:45:01.607Z,20.67
2018-12-07T04:46:04.177Z,20.63
2018-12-07T04:47:06.927Z,20.63
2018-12-07T04:48:09.434Z,20.61
2018-12-07T04:49:12.029Z,20.60
2018-12-07T04:50:14.699Z,20.59
2018-12-07T04:51:17.180Z,20.55
2018-12-07T04:52:19.660Z,20.54
2018-12-07T04:53:22.204Z,20.53
2018-12-07T04:54:24.684Z,20.50
2018-12-07T04:55:27.197Z,20.50
2018-12-07T04:56:29.679Z,20.47
2018-12-07T04:57:32.177Z,20.45
2018-12-07T04:58:34.656Z,20.43
2018-12-07T04:59:37.140Z,20.41
2018-12-07T05:00:39.646Z,20.39
2018-12-07T05:01:42.298Z,20.37
2018-12-07T05:02:44.760Z,20.36
2018-12-07T05:03:47.241Z,20.35
2018-12-07T05:04:50.154Z,20.33
2018-12-07T05:05:52.673Z,20.32
2018-12-07T05:06:55.140Z,20.30
2018-12-07T05:07:57.641Z,20.29
2018-12-07T05:09:00.114Z,20.26
2018-12-07T05:10:02.732Z,20.28
2018-12-07T05:11:05.227Z,20.31
2018-12-07T05:12:07.708Z,20.36
2018-12-07T05:13:10.195Z,20.41
2018-12-07T05:14:12.689Z,20.49
2018-12-07T05:15:15.171Z,20.57
2018-12-07T05:16:17.659Z,20.60
2018-12-07T05:17:20.121Z,20.61
2018-12-07T05:18:22.615Z,20.64
2018-12-07T05:19:25.095Z,20.70
2018-12-07T05:20:27.573Z,20.73
2018-12-07T05:21:30.097Z,20.75
2018-12-07T05:22:32.705Z,20.77
2018-12-07T05:23:35.174Z,20.77
2018-12-07T05:24:37.651Z,20.77
2018-12-07T05:25:40.203Z,20.75
2018-12-07T05:26:42.765Z,20.77
2018-12-07T05:27:45.247Z,20.76
2018-12-07T05:28:47.831Z,20.77
2018-12-07T05:29:50.520Z,20.75
2018-12-07T05:30:53.021Z,20.74
2018-12-07T05:31:55.520Z,20.72
2018-12-07T05:32:58.003Z,20.71
2018-12-07T05:34:00.478Z,20.69
2018-12-07T05:35:03.330Z,20.67
2018-12-07T05:36:05.831Z,20.66
2018-12-07T05:37:08.352Z,20.66
2018-12-07T05:38:10.817Z,20.66
2018-12-07T05:39:13.311Z,20.64
2018-12-07T05:40:15.801Z,20.63
2018-12-07T05:41:18.298Z,20.61
2018-12-07T05:42:20.830Z,20.60
2018-12-07T05:43:23.322Z,20.58
2018-12-07T05:44:25.789Z,20.56
2018-12-07T05:45:28.359Z,20.52
2018-12-07T05:46:30.834Z,20.50
2018-12-07T05:47:33.350Z,20.48
2018-12-07T05:48:35.836Z,20.46
2018-12-07T05:49:38.322Z,20.44
2018-12-07T05:50:40.807Z,20.42
2018-12-07T05:51:43.270Z,20.39
2018-12-07T05:52:45.784Z,20.38
2018-12-07T05:53:48.267Z,20.36
2018-12-07T05:54:50.767Z,20.34
2018-12-07T05:55:53.261Z,20.33
2018-12-07T05:56:55.739Z,20.31
2018-12-07T05:57:58.235Z,20.28
2018-12-07T05:59:00.700Z,20.28
2018-12-07T06:00:04.048Z,20.27
2018-12-07T06:01:06.623Z,20.24
2018-12-07T06:02:09.102Z,20.22
2018-12-07T06:03:11.640Z,20.21
2018-12-07T06:04:14.191Z,20.22
2018-12-07T06:05:16.698Z,20.25
2018-12-07T06:06:19.344Z,20.34
2018-12-07T06:07:21.835Z,20.38
2018-12-07T06:08:24.345Z,20.46
2018-12-07T06:09:26.856Z,20.48
2018-12-07T06:10:29.381Z,20.53
2018-12-07T06:11:31.863Z,20.54
2018-12-07T06:12:34.349Z,20.57
2018-12-07T06:13:36.874Z,20.61
2018-12-07T06:14:39.370Z,20.62
2018-12-07T06:15:41.889Z,20.64
2018-12-07T06:16:44.353Z,20.65
2018-12-07T06:17:46.877Z,20.68
2018-12-07T06:18:49.402Z,20.68
2018-12-07T06:19:51.915Z,20.68
2018-12-07T06:20:54.400Z,20.68
2018-12-07T06:21:56.902Z,20.68
2018-12-07T06:22:59.368Z,20.67
2018-12-07T06:24:01.856Z,20.67
2018-12-07T06:25:04.778Z,20.67
2018-12-07T06:26:07.294Z,20.68
2018-12-07T06:27:09.789Z,20.67
2018-12-07T06:28:12.275Z,20.67
2018-12-07T06:29:14.785Z,20.66
2018-12-07T06:30:17.376Z,20.65
2018-12-07T06:31:19.849Z,20.63
2018-12-07T06:32:22.359Z,20.64
2018-12-07T06:33:24.915Z,20.62
2018-12-07T06:34:27.494Z,20.59
2018-12-07T06:35:29.979Z,20.60
2018-12-07T06:36:32.455Z,20.60
2018-12-07T06:37:34.977Z,20.59
2018-12-07T06:38:37.464Z,20.58
2018-12-07T06:39:39.976Z,20.58
2018-12-07T06:40:42.592Z,20.59
2018-12-07T06:41:45.148Z,20.58
2018-12-07T06:42:47.646Z,20.58
2018-12-07T06:44:12.054Z,20.56
2018-12-07T06:45:14.577Z,20.55
2018-12-07T06:46:17.065Z,20.56
2018-12-07T06:47:19.558Z,20.55
2018-12-07T06:48:22.051Z,20.53
2018-12-07T06:49:24.540Z,20.51
2018-12-07T06:50:27.063Z,20.51
2018-12-07T06:51:29.534Z,20.51
2018-12-07T06:52:32.039Z,20.52
2018-12-07T06:53:34.540Z,20.48
2018-12-07T06:54:37.045Z,20.43
2018-12-07T06:55:39.642Z,20.37
2018-12-07T06:56:42.152Z,20.31
2018-12-07T06:57:44.646Z,20.24
2018-12-07T06:58:47.165Z,20.18
2018-12-07T06:59:49.655Z,20.14
2018-12-07T07:00:52.183Z,20.06
2018-12-07T07:01:54.663Z,19.96
2018-12-07T07:02:57.191Z,19.87
2018-12-07T07:03:59.672Z,19.82
2018-12-07T07:05:02.188Z,19.74
2018-12-07T07:06:04.677Z,19.64
2018-12-07T07:07:07.195Z,19.56
2018-12-07T07:08:09.695Z,19.54
2018-12-07T07:09:12.189Z,19.50
2018-12-07T07:10:14.680Z,19.48
2018-12-07T07:11:17.210Z,19.46
2018-12-07T07:12:19.703Z,19.45
2018-12-07T07:13:22.338Z,19.44
2018-12-07T07:14:24.816Z,19.45
2018-12-07T07:15:27.296Z,19.46
2018-12-07T07:16:29.823Z,19.47
2018-12-07T07:17:32.340Z,19.47
2018-12-07T07:18:35.497Z,19.47
2018-12-07T07:19:41.872Z,19.49
2018-12-07T07:20:44.834Z,19.50
2018-12-07T07:21:49.390Z,19.52
2018-12-07T07:22:53.459Z,19.51
2018-12-07T07:23:56.159Z,19.52
2018-12-07T07:25:02.029Z,19.51
2018-12-07T07:26:04.565Z,19.52
2018-12-07T07:27:07.087Z,19.52
2018-12-07T07:28:09.556Z,19.53
2018-12-07T07:29:12.038Z,19.52
2018-12-07T07:30:14.659Z,19.53
2018-12-07T07:31:17.181Z,19.52
2018-12-07T07:32:19.701Z,19.52
2018-12-07T07:33:22.190Z,19.52
2018-12-07T07:34:24.692Z,19.51
2018-12-07T07:35:27.175Z,19.52
2018-12-07T07:36:29.646Z,19.51
2018-12-07T07:37:32.146Z,19.50
2018-12-07T07:38:35.368Z,19.51
2018-12-07T07:39:37.852Z,19.50
2018-12-07T07:40:40.316Z,19.49
2018-12-07T07:41:42.777Z,19.49
2018-12-07T07:42:45.291Z,19.49
2018-12-07T07:43:48.233Z,19.47
2018-12-07T07:44:50.973Z,19.47
2018-12-07T07:45:53.659Z,19.47
2018-12-07T07:46:57.375Z,19.45
2018-12-07T07:47:59.892Z,19.45
2018-12-07T07:49:02.588Z,19.44
2018-12-07T07:50:07.277Z,19.44
2018-12-07T07:51:12.375Z,19.42
2018-12-07T07:52:15.694Z,19.43
2018-12-07T07:53:18.602Z,19.42
2018-12-07T07:54:21.308Z,19.41
2018-12-07T07:55:24.411Z,19.41
2018-12-07T07:56:26.876Z,19.39
2018-12-07T07:57:29.393Z,19.40
2018-12-07T07:58:33.330Z,19.40
2018-12-07T07:59:35.823Z,19.38
2018-12-07T08:00:38.322Z,19.36
2018-12-07T08:01:40.812Z,19.36
2018-12-07T08:02:43.295Z,19.36
2018-12-07T08:03:45.781Z,19.34
2018-12-07T08:04:48.240Z,19.35
2018-12-07T08:05:50.708Z,19.34
2018-12-07T08:06:53.187Z,19.33
2018-12-07T08:07:55.735Z,19.33
2018-12-07T08:08:58.278Z,19.32
2018-12-07T08:10:00.769Z,19.30
2018-12-07T08:11:03.265Z,19.30
2018-12-07T08:12:05.850Z,19.30
2018-12-07T08:13:08.335Z,19.29
2018-12-07T08:14:10.853Z,19.28
2018-12-07T08:15:13.465Z,19.28
2018-12-07T08:16:15.955Z,19.27
2018-12-07T08:17:18.435Z,19.26
2018-12-07T08:18:21.078Z,19.27
2018-12-07T08:19:23.582Z,19.26
2018-12-07T08:20:26.071Z,19.25
2018-12-07T08:21:28.565Z,19.25
2018-12-07T08:22:31.062Z,19.24
2018-12-07T08:23:33.528Z,19.24
2018-12-07T08:24:36.032Z,19.23
2018-12-07T08:25:38.527Z,19.23
2018-12-07T08:26:40.999Z,19.22
2018-12-07T08:27:43.493Z,19.22
2018-12-07T08:28:45.971Z,19.22
2018-12-07T08:29:48.463Z,19.21
2018-12-07T08:30:50.971Z,19.20
2018-12-07T08:31:53.472Z,19.20
2018-12-07T08:32:55.937Z,19.20
2018-12-07T08:34:00.178Z,19.19
2018-12-07T08:35:02.938Z,19.18
2018-12-07T08:36:05.403Z,19.18
2018-12-07T08:37:07.882Z,19.18
2018-12-07T08:38:10.375Z,19.17
2018-12-07T08:39:12.937Z,19.16
2018-12-07T08:40:15.438Z,19.16
2018-12-07T08:41:17.915Z,19.16
2018-12-07T08:42:20.407Z,19.16
2018-12-07T08:43:22.901Z,19.15
2018-12-07T08:44:25.361Z,19.15
2018-12-07T08:45:27.924Z,19.14
2018-12-07T08:46:30.403Z,19.14
2018-12-07T08:47:32.879Z,19.13
2018-12-07T08:48:35.382Z,19.12
2018-12-07T08:49:43.604Z,19.12
2018-12-07T08:50:46.115Z,19.11
2018-12-07T08:51:48.660Z,19.11
2018-12-07T08:52:51.129Z,19.09
2018-12-07T08:53:53.596Z,19.10
2018-12-07T08:54:56.078Z,19.09
2018-12-07T08:55:58.562Z,19.09
2018-12-07T08:57:01.039Z,19.09
2018-12-07T08:58:03.533Z,19.09
2018-12-07T08:59:06.008Z,19.08
2018-12-07T09:00:08.717Z,19.08
2018-12-07T09:01:11.255Z,19.06
2018-12-07T09:02:13.818Z,19.05
2018-12-07T09:03:16.303Z,19.06
2018-12-07T09:04:18.764Z,19.04
2018-12-07T09:05:21.224Z,19.04
2018-12-07T09:06:23.713Z,19.04
2018-12-07T09:07:26.211Z,19.04
2018-12-07T09:08:28.673Z,19.03
2018-12-07T09:09:31.163Z,19.02
2018-12-07T09:10:33.623Z,19.02
2018-12-07T09:11:36.126Z,19.01
2018-12-07T09:12:38.629Z,19.01
2018-12-07T09:13:41.171Z,19.01
2018-12-07T09:14:43.655Z,19.00
2018-12-07T09:15:46.120Z,19.01
2018-12-07T09:16:48.601Z,18.99
2018-12-07T09:17:51.116Z,18.99
2018-12-07T09:18:53.600Z,19.00
2018-12-07T09:19:56.061Z,18.98
2018-12-07T09:20:58.679Z,18.97
2018-12-07T09:22:01.169Z,18.98
2018-12-07T09:23:03.713Z,18.97
2018-12-07T09:24:06.191Z,18.96
2018-12-07T09:25:08.763Z,18.97
2018-12-07T09:26:11.235Z,18.95
2018-12-07T09:27:13.720Z,18.95
2018-12-07T09:28:16.215Z,18.95
2018-12-07T09:29:18.756Z,18.94
2018-12-07T09:30:21.304Z,18.94
2018-12-07T09:31:23.775Z,18.93
2018-12-07T09:32:26.363Z,18.92
2018-12-07T09:33:28.862Z,18.94
2018-12-07T09:34:31.321Z,18.92
2018-12-07T09:35:33.799Z,18.92
2018-12-07T09:36:36.290Z,18.92
2018-12-07T09:37:38.783Z,18.91
2018-12-07T09:38:41.244Z,18.91
2018-12-07T09:39:43.719Z,18.92
2018-12-07T09:40:46.188Z,18.90
2018-12-07T09:41:48.656Z,18.90
2018-12-07T09:42:51.219Z,18.89
2018-12-07T09:43:53.695Z,18.89
2018-12-07T09:44:56.168Z,18.88
2018-12-07T09:45:58.639Z,18.89
2018-12-07T09:47:01.096Z,18.89
2018-12-07T09:48:03.590Z,18.87
2018-12-07T09:49:06.079Z,18.86
2018-12-07T09:50:08.657Z,18.87
2018-12-07T09:51:11.120Z,18.87
2018-12-07T09:52:13.607Z,18.87
2018-12-07T09:53:16.119Z,18.86
2018-12-07T09:54:18.613Z,18.86
2018-12-07T09:55:21.107Z,18.85
2018-12-07T09:56:23.589Z,18.85
2018-12-07T09:57:26.116Z,18.84
2018-12-07T09:58:28.607Z,18.84
2018-12-07T09:59:31.079Z,18.84
2018-12-07T10:00:33.555Z,18.83
2018-12-07T10:01:36.085Z,18.83
2018-12-07T10:02:38.738Z,18.83
2018-12-07T10:03:41.226Z,18.83
2018-12-07T10:04:43.701Z,18.82
2018-12-07T10:05:46.157Z,18.82
2018-12-07T10:06:48.634Z,18.81
2018-12-07T10:07:51.140Z,18.82
2018-12-07T10:08:53.664Z,18.81
2018-12-07T10:09:56.135Z,18.81
2018-12-07T10:10:58.615Z,18.79
2018-12-07T10:12:01.106Z,18.79
2018-12-07T10:13:07.987Z,18.80
2018-12-07T10:14:08.100Z,18.78
2018-12-07T10:15:10.727Z,18.78
2018-12-07T10:16:13.199Z,18.78
2018-12-07T10:17:15.697Z,18.77
2018-12-07T10:18:18.213Z,18.77
2018-12-07T10:19:20.740Z,18.75
2018-12-07T10:20:23.219Z,18.77
2018-12-07T10:21:25.682Z,18.75
2018-12-07T10:22:28.188Z,18.75
2018-12-07T10:23:30.667Z,18.75
2018-12-07T10:24:33.151Z,18.74
2018-12-07T10:25:35.732Z,18.74
2018-12-07T10:26:38.221Z,18.74
2018-12-07T10:27:40.741Z,18.75
2018-12-07T10:28:43.211Z,18.74
2018-12-07T10:29:45.693Z,18.74
2018-12-07T10:30:48.152Z,18.73
2018-12-07T10:31:50.652Z,18.73
2018-12-07T10:32:53.138Z,18.73
2018-12-07T10:33:55.614Z,18.72
2018-12-07T10:34:58.096Z,18.73
2018-12-07T10:36:00.548Z,18.72
2018-12-07T10:37:03.023Z,18.72
2018-12-07T10:38:05.485Z,18.71
2018-12-07T10:39:07.972Z,18.72
2018-12-07T10:40:10.623Z,18.71
2018-12-07T10:41:13.104Z,18.70
2018-12-07T10:42:15.565Z,18.69
2018-12-07T10:43:18.114Z,18.71
2018-12-07T10:44:20.652Z,18.69
2018-12-07T10:45:23.168Z,18.68
2018-12-07T10:46:25.647Z,18.68
2018-12-07T10:47:28.134Z,18.68
2018-12-07T10:48:30.627Z,18.69
2018-12-07T10:49:33.108Z,18.68
2018-12-07T10:50:35.603Z,18.68
2018-12-07T10:51:38.178Z,18.68
2018-12-07T10:52:40.643Z,18.67
2018-12-07T10:53:43.115Z,18.67
2018-12-07T10:54:45.574Z,18.67
2018-12-07T10:55:48.079Z,18.66
2018-12-07T10:56:50.561Z,18.67
2018-12-07T10:57:53.042Z,18.65
2018-12-07T10:58:55.644Z,18.66
2018-12-07T10:59:58.109Z,18.66
2018-12-07T11:01:06.289Z,18.65
2018-12-07T11:02:14.419Z,18.65
2018-12-07T11:03:22.349Z,18.65
2018-12-07T11:04:30.558Z,18.64
2018-12-07T11:05:38.764Z,18.64
2018-12-07T11:06:47.046Z,18.64
2018-12-07T11:07:55.059Z,18.62
2018-12-07T11:09:04.070Z,18.62
2018-12-07T11:10:12.654Z,18.62
2018-12-07T11:11:20.936Z,18.62
2018-12-07T11:12:28.956Z,18.62
2018-12-07T11:13:33.289Z,18.61
2018-12-07T11:14:41.393Z,18.61
2018-12-07T11:15:49.537Z,18.61
2018-12-07T11:16:57.710Z,18.60
2018-12-07T11:18:12.674Z,18.60
2018-12-07T11:19:20.714Z,18.60
2018-12-07T11:20:28.705Z,18.58
2018-12-07T11:21:36.961Z,18.59
2018-12-07T11:22:45.047Z,18.59
2018-12-07T11:23:53.213Z,18.57
2018-12-07T11:26:42.980Z,18.57
2018-12-07T11:27:51.087Z,18.57
2018-12-07T11:28:59.312Z,18.57
2018-12-07T11:30:07.571Z,18.56
2018-12-07T11:31:15.820Z,18.56
2018-12-07T11:32:20.271Z,18.56
2018-12-07T11:33:27.189Z,18.56
2018-12-07T11:34:31.631Z,18.55
2018-12-07T11:35:34.998Z,18.56
2018-12-07T11:36:37.553Z,18.54
2018-12-07T11:37:40.128Z,18.54
2018-12-07T11:38:42.612Z,18.54
2018-12-07T11:39:45.171Z,18.53
2018-12-07T11:40:47.705Z,18.54
2018-12-07T11:41:50.215Z,18.53
2018-12-07T11:42:52.792Z,18.53
2018-12-07T11:43:55.292Z,18.53
2018-12-07T11:44:57.790Z,18.53
2018-12-07T11:46:00.302Z,18.53
2018-12-07T11:47:02.760Z,18.53
2018-12-07T11:48:05.423Z,18.52
2018-12-07T11:49:07.989Z,18.51
2018-12-07T11:50:10.920Z,18.52
2018-12-07T11:51:13.514Z,18.50
2018-12-07T11:52:16.029Z,18.51
2018-12-07T11:53:18.505Z,18.51
2018-12-07T11:54:21.057Z,18.50
2018-12-07T11:55:23.542Z,18.50
2018-12-07T11:56:26.032Z,18.50
2018-12-07T11:57:28.521Z,18.50
2018-12-07T11:58:31.044Z,18.49
2018-12-07T11:59:33.502Z,18.50
2018-12-07T12:00:35.973Z,18.50
2018-12-07T12:01:44.663Z,18.48
2018-12-07T12:02:43.083Z,18.48
2018-12-07T12:03:45.642Z,18.48
2018-12-07T12:04:48.114Z,18.48
2018-12-07T12:05:50.642Z,18.48
2018-12-07T12:06:53.157Z,18.48
2018-12-07T12:07:55.643Z,18.47
2018-12-07T12:08:58.117Z,18.47
2018-12-07T12:10:00.612Z,18.47
2018-12-07T12:11:03.098Z,18.47
2018-12-07T12:12:05.587Z,18.47
2018-12-07T12:13:08.057Z,18.45
2018-12-07T12:14:10.522Z,18.45
2018-12-07T12:15:12.996Z,18.45
2018-12-07T12:16:15.489Z,18.45
2018-12-07T12:17:17.995Z,18.45
2018-12-07T12:18:20.460Z,18.45
2018-12-07T12:19:22.916Z,18.45
2018-12-07T12:20:25.475Z,18.44
2018-12-07T12:21:27.944Z,18.45
2018-12-07T12:22:30.437Z,18.44
2018-12-07T12:23:32.941Z,18.44
2018-12-07T12:24:35.395Z,18.43
2018-12-07T12:25:37.890Z,18.43
2018-12-07T12:26:40.371Z,18.43
2018-12-07T12:27:42.852Z,18.44
2018-12-07T12:28:45.440Z,18.43
2018-12-07T12:29:47.929Z,18.42
2018-12-07T12:30:50.410Z,18.42
2018-12-07T12:31:52.874Z,18.42
2018-12-07T12:32:55.503Z,18.42
2018-12-07T12:33:57.978Z,18.42
2018-12-07T12:35:00.467Z,18.41
2018-12-07T12:36:02.944Z,18.41
2018-12-07T12:37:05.437Z,18.41
2018-12-07T12:38:07.973Z,18.41
2018-12-07T12:39:10.443Z,18.40
2018-12-07T12:40:12.926Z,18.40
2018-12-07T12:41:15.415Z,18.40
2018-12-07T12:42:17.876Z,18.40
2018-12-07T12:43:20.460Z,18.40
2018-12-07T12:44:22.957Z,18.40
2018-12-07T12:45:25.614Z,18.40
2018-12-07T12:46:28.242Z,18.40
2018-12-07T12:47:30.719Z,18.38
2018-12-07T12:48:33.883Z,18.39
2018-12-07T12:49:36.385Z,18.39
2018-12-07T12:50:38.863Z,18.37
2018-12-07T12:51:41.372Z,18.38
2018-12-07T12:52:43.837Z,18.37
2018-12-07T12:53:46.308Z,18.38
2018-12-07T12:54:48.859Z,18.38
2018-12-07T12:55:51.331Z,18.37
2018-12-07T12:56:53.876Z,18.36
2018-12-07T12:57:56.337Z,18.35
2018-12-07T12:58:58.841Z,18.36
2018-12-07T13:00:01.356Z,18.36
2018-12-07T13:01:03.873Z,18.36
2018-12-07T13:02:06.359Z,18.35
2018-12-07T13:03:08.836Z,18.35
2018-12-07T13:04:11.306Z,18.35
2018-12-07T13:05:13.772Z,18.35
2018-12-07T13:06:16.247Z,18.34
2018-12-07T13:07:18.743Z,18.35
2018-12-07T13:08:21.213Z,18.35
2018-12-07T13:09:23.738Z,18.34
2018-12-07T13:10:26.215Z,18.34
2018-12-07T13:11:28.724Z,18.34
2018-12-07T13:12:31.215Z,18.33
2018-12-07T13:13:33.733Z,18.34
2018-12-07T13:14:36.207Z,18.34
2018-12-07T13:15:38.685Z,18.33
2018-12-07T13:16:41.638Z,18.34
2018-12-07T13:17:44.096Z,18.33
2018-12-07T13:18:46.589Z,18.34
2018-12-07T13:19:49.048Z,18.33
2018-12-07T13:20:51.528Z,18.34
2018-12-07T13:21:54.003Z,18.33
2018-12-07T13:22:56.507Z,18.32
2018-12-07T13:23:58.989Z,18.32
2018-12-07T13:25:01.483Z,18.32
2018-12-07T13:26:03.960Z,18.32
2018-12-07T13:27:06.431Z,18.32
2018-12-07T13:28:08.945Z,18.31
2018-12-07T13:29:11.423Z,18.31
2018-12-07T13:30:13.945Z,18.31
2018-12-07T13:31:16.420Z,18.30